sensor_id;sensor_type;location;lat;lon;timestamp;pressure;altitude;pressure_sealevel;temperature;humidity
70437;BME280;57877;39.750;-104.894;2023-04-02T00:01:41;83009.64;;;19.88;5.86
70437;BME280;57877;39.750;-104.894;2023-04-02T00:04:13;83003.75;;;18.74;6.14
70437;BME280;57877;39.750;-104.894;2023-04-02T00:06:35;83010.79;;;18.48;6.65
70437;BME280;57877;39.750;-104.894;2023-04-02T00:09:00;83008.84;;;19.19;6.25
70437;BME280;57877;39.750;-104.894;2023-04-02T00:11:29;83009.03;;;19.62;6.06
70437;BME280;57877;39.750;-104.894;2023-04-02T00:13:51;83009.20;;;19.86;5.75
70437;BME280;57877;39.750;-104.894;2023-04-02T00:16:22;83007.33;;;20.20;5.54
70437;BME280;57877;39.750;-104.894;2023-04-02T00:18:47;83005.17;;;20.16;5.28
70437;BME280;57877;39.750;-104.894;2023-04-02T00:21:14;83005.91;;;20.35;5.22
70437;BME280;57877;39.750;-104.894;2023-04-02T00:23:36;83000.89;;;19.99;5.31
70437;BME280;57877;39.750;-104.894;2023-04-02T00:26:01;82996.21;;;20.60;5.11
70437;BME280;57877;39.750;-104.894;2023-04-02T00:28:27;83001.03;;;20.78;5.18
70437;BME280;57877;39.750;-104.894;2023-04-02T00:30:57;83009.17;;;20.51;4.98
70437;BME280;57877;39.750;-104.894;2023-04-02T00:33:21;83010.87;;;20.60;4.87
70437;BME280;57877;39.750;-104.894;2023-04-02T00:35:47;83013.83;;;20.53;4.96
70437;BME280;57877;39.750;-104.894;2023-04-02T00:38:19;83018.46;;;20.35;4.97
70437;BME280;57877;39.750;-104.894;2023-04-02T00:40:38;83013.86;;;20.40;5.05
70437;BME280;57877;39.750;-104.894;2023-04-02T00:43:05;83008.17;;;20.12;5.04
70437;BME280;57877;39.750;-104.894;2023-04-02T00:45:31;83006.48;;;20.28;5.02
70437;BME280;57877;39.750;-104.894;2023-04-02T00:47:54;83000.90;;;20.12;4.49
70437;BME280;57877;39.750;-104.894;2023-04-02T00:50:25;82995.81;;;19.02;4.58
70437;BME280;57877;39.750;-104.894;2023-04-02T00:52:47;82996.06;;;18.01;4.63
70437;BME280;57877;39.750;-104.894;2023-04-02T00:55:16;82991.94;;;17.64;4.87
70437;BME280;57877;39.750;-104.894;2023-04-02T00:57:41;82996.85;;;17.39;5.60
70437;BME280;57877;39.750;-104.894;2023-04-02T01:02:32;82995.01;;;17.73;5.28
70437;BME280;57877;39.750;-104.894;2023-04-02T01:04:57;82992.94;;;18.28;4.99
70437;BME280;57877;39.750;-104.894;2023-04-02T01:07:30;82991.91;;;17.97;5.06
70437;BME280;57877;39.750;-104.894;2023-04-02T01:10:00;82987.12;;;17.89;4.85
70437;BME280;57877;39.750;-104.894;2023-04-02T01:12:25;82983.73;;;17.91;4.77
70437;BME280;57877;39.750;-104.894;2023-04-02T01:14:48;82983.96;;;17.68;4.73
70437;BME280;57877;39.750;-104.894;2023-04-02T01:17:13;82977.41;;;17.38;4.76
70437;BME280;57877;39.750;-104.894;2023-04-02T01:22:00;82979.97;;;17.19;5.04
70437;BME280;57877;39.750;-104.894;2023-04-02T01:24:36;82977.20;;;17.11;5.07
70437;BME280;57877;39.750;-104.894;2023-04-02T01:26:53;82970.76;;;16.42;5.15
70437;BME280;57877;39.750;-104.894;2023-04-02T01:29:17;82974.83;;;16.66;5.03
70437;BME280;57877;39.750;-104.894;2023-04-02T01:31:41;82971.02;;;16.12;5.13
70437;BME280;57877;39.750;-104.894;2023-04-02T01:34:10;82966.42;;;15.91;5.15
70437;BME280;57877;39.750;-104.894;2023-04-02T01:36:38;82967.26;;;16.10;5.18
70437;BME280;57877;39.750;-104.894;2023-04-02T01:39:05;82966.74;;;16.13;5.12
70437;BME280;57877;39.750;-104.894;2023-04-02T01:41:29;82967.55;;;15.65;5.22
70437;BME280;57877;39.750;-104.894;2023-04-02T01:43:54;82965.20;;;15.21;5.39
70437;BME280;57877;39.750;-104.894;2023-04-02T01:46:24;82965.85;;;15.68;5.29
70437;BME280;57877;39.750;-104.894;2023-04-02T01:48:42;82963.89;;;15.68;5.28
70437;BME280;57877;39.750;-104.894;2023-04-02T01:53:32;82955.82;;;15.24;5.33
70437;BME280;57877;39.750;-104.894;2023-04-02T01:56:00;82948.93;;;15.47;5.31
70437;BME280;57877;39.750;-104.894;2023-04-02T01:58:27;82952.95;;;15.15;5.36
70437;BME280;57877;39.750;-104.894;2023-04-02T02:00:52;82948.88;;;15.16;5.42
70437;BME280;57877;39.750;-104.894;2023-04-02T02:03:17;82953.26;;;14.44;5.59
70437;BME280;57877;39.750;-104.894;2023-04-02T02:05:42;82959.15;;;14.77;5.68
70437;BME280;57877;39.750;-104.894;2023-04-02T02:10:36;82964.10;;;14.84;5.89
70437;BME280;57877;39.750;-104.894;2023-04-02T02:13:00;82965.08;;;14.86;5.72
70437;BME280;57877;39.750;-104.894;2023-04-02T02:15:24;82966.70;;;14.81;5.71
70437;BME280;57877;39.750;-104.894;2023-04-02T02:17:52;82972.64;;;15.00;5.65
70437;BME280;57877;39.750;-104.894;2023-04-02T02:20:16;82974.86;;;14.65;5.66
70437;BME280;57877;39.750;-104.894;2023-04-02T02:22:45;82971.58;;;14.37;5.73
70437;BME280;57877;39.750;-104.894;2023-04-02T02:25:12;82974.63;;;14.50;5.74
70437;BME280;57877;39.750;-104.894;2023-04-02T02:27:42;82973.79;;;14.60;5.72
70437;BME280;57877;39.750;-104.894;2023-04-02T02:30:03;82974.86;;;14.38;5.81
70437;BME280;57877;39.750;-104.894;2023-04-02T02:32:27;82977.51;;;14.72;5.71
70437;BME280;57877;39.750;-104.894;2023-04-02T02:34:55;82980.19;;;14.53;5.78
70437;BME280;57877;39.750;-104.894;2023-04-02T02:37:19;82982.06;;;14.76;5.67
70437;BME280;57877;39.750;-104.894;2023-04-02T02:39:43;82984.39;;;15.12;5.62
70437;BME280;57877;39.750;-104.894;2023-04-02T02:42:13;82985.30;;;14.73;5.61
70437;BME280;57877;39.750;-104.894;2023-04-02T02:44:37;82984.65;;;14.99;5.63
70437;BME280;57877;39.750;-104.894;2023-04-02T02:47:02;82982.22;;;15.02;5.79
70437;BME280;57877;39.750;-104.894;2023-04-02T02:49:28;82982.07;;;14.54;5.92
70437;BME280;57877;39.750;-104.894;2023-04-02T02:51:57;82980.09;;;14.43;5.91
70437;BME280;57877;39.750;-104.894;2023-04-02T02:54:18;82984.53;;;14.45;6.00
70437;BME280;57877;39.750;-104.894;2023-04-02T02:56:48;82984.72;;;14.68;6.01
70437;BME280;57877;39.750;-104.894;2023-04-02T02:59:10;82989.54;;;14.44;6.08
70437;BME280;57877;39.750;-104.894;2023-04-02T03:01:36;82986.55;;;14.42;6.05
70437;BME280;57877;39.750;-104.894;2023-04-02T03:04:02;82989.74;;;14.07;6.18
70437;BME280;57877;39.750;-104.894;2023-04-02T03:06:28;82995.72;;;13.91;6.28
70437;BME280;57877;39.750;-104.894;2023-04-02T03:08:58;82990.16;;;13.68;6.36
70437;BME280;57877;39.750;-104.894;2023-04-02T03:11:25;82988.58;;;13.82;6.47
70437;BME280;57877;39.750;-104.894;2023-04-02T03:13:46;82991.50;;;13.56;6.46
70437;BME280;57877;39.750;-104.894;2023-04-02T03:16:11;82977.87;;;13.49;6.48
70437;BME280;57877;39.750;-104.894;2023-04-02T03:18:41;82984.14;;;13.96;6.44
70437;BME280;57877;39.750;-104.894;2023-04-02T03:21:08;82978.29;;;13.77;6.50
70437;BME280;57877;39.750;-104.894;2023-04-02T03:23:29;82976.75;;;14.38;6.42
70437;BME280;57877;39.750;-104.894;2023-04-02T03:25:57;82974.11;;;14.12;6.34
70437;BME280;57877;39.750;-104.894;2023-04-02T03:28:22;82968.80;;;13.93;6.48
70437;BME280;57877;39.750;-104.894;2023-04-02T03:30:47;82970.88;;;14.19;6.36
70437;BME280;57877;39.750;-104.894;2023-04-02T03:33:14;82970.16;;;12.85;6.78
70437;BME280;57877;39.750;-104.894;2023-04-02T03:35:39;82967.33;;;13.18;6.74
70437;BME280;57877;39.750;-104.894;2023-04-02T03:38:06;82966.06;;;13.23;6.60
70437;BME280;57877;39.750;-104.894;2023-04-02T03:40:32;82966.29;;;13.41;6.61
70437;BME280;57877;39.750;-104.894;2023-04-02T03:42:57;82969.75;;;13.80;6.54
70437;BME280;57877;39.750;-104.894;2023-04-02T03:45:21;82967.11;;;13.12;6.64
70437;BME280;57877;39.750;-104.894;2023-04-02T03:47:46;82956.87;;;13.33;6.75
70437;BME280;57877;39.750;-104.894;2023-04-02T03:50:13;82968.02;;;13.46;6.75
70437;BME280;57877;39.750;-104.894;2023-04-02T03:52:40;82970.59;;;13.54;6.67
70437;BME280;57877;39.750;-104.894;2023-04-02T03:55:00;82967.35;;;13.55;6.57
70437;BME280;57877;39.750;-104.894;2023-04-02T03:57:29;82963.67;;;13.79;6.50
70437;BME280;57877;39.750;-104.894;2023-04-02T03:59:54;82959.00;;;13.73;6.48
70437;BME280;57877;39.750;-104.894;2023-04-02T04:02:22;82958.34;;;13.98;6.43
70437;BME280;57877;39.750;-104.894;2023-04-02T04:04:40;82953.97;;;13.85;7.59
70437;BME280;57877;39.750;-104.894;2023-04-02T04:07:04;82959.70;;;13.71;6.55
70437;BME280;57877;39.750;-104.894;2023-04-02T04:09:32;82962.29;;;13.70;6.54
70437;BME280;57877;39.750;-104.894;2023-04-02T04:12:04;82956.30;;;13.31;6.73
70437;BME280;57877;39.750;-104.894;2023-04-02T04:14:27;82961.04;;;13.76;6.60
70437;BME280;57877;39.750;-104.894;2023-04-02T04:16:50;82960.19;;;13.40;8.08
70437;BME280;57877;39.750;-104.894;2023-04-02T04:19:16;82962.41;;;13.74;6.46
70437;BME280;57877;39.750;-104.894;2023-04-02T04:21:38;82971.18;;;13.75;6.47
70437;BME280;57877;39.750;-104.894;2023-04-02T04:24:06;82967.18;;;13.86;6.49
70437;BME280;57877;39.750;-104.894;2023-04-02T04:26:35;82963.33;;;13.76;6.54
70437;BME280;57877;39.750;-104.894;2023-04-02T04:28:58;82961.06;;;13.68;6.56
70437;BME280;57877;39.750;-104.894;2023-04-02T04:31:26;82957.32;;;13.54;6.67
70437;BME280;57877;39.750;-104.894;2023-04-02T04:33:48;82957.64;;;13.70;6.56
70437;BME280;57877;39.750;-104.894;2023-04-02T04:36:16;82958.79;;;13.75;6.59
70437;BME280;57877;39.750;-104.894;2023-04-02T04:38:37;82950.12;;;13.71;6.59
70437;BME280;57877;39.750;-104.894;2023-04-02T04:41:05;82944.15;;;13.85;6.58
70437;BME280;57877;39.750;-104.894;2023-04-02T04:43:36;82943.51;;;13.68;6.71
70437;BME280;57877;39.750;-104.894;2023-04-02T04:45:57;82941.31;;;13.44;6.81
70437;BME280;57877;39.750;-104.894;2023-04-02T04:48:21;82946.69;;;13.02;6.97
70437;BME280;57877;39.750;-104.894;2023-04-02T04:50:49;82939.61;;;13.29;6.96
70437;BME280;57877;39.750;-104.894;2023-04-02T04:53:15;82924.77;;;12.61;7.25
70437;BME280;57877;39.750;-104.894;2023-04-02T04:55:40;82927.76;;;12.79;7.29
70437;BME280;57877;39.750;-104.894;2023-04-02T04:58:10;82943.69;;;12.79;7.31
70437;BME280;57877;39.750;-104.894;2023-04-02T05:00:37;82946.30;;;13.13;7.34
70437;BME280;57877;39.750;-104.894;2023-04-02T05:03:01;82941.94;;;13.05;7.27
70437;BME280;57877;39.750;-104.894;2023-04-02T05:05:25;82932.41;;;12.70;7.23
70437;BME280;57877;39.750;-104.894;2023-04-02T05:07:51;82939.72;;;13.16;7.35
70437;BME280;57877;39.750;-104.894;2023-04-02T05:10:18;82936.00;;;13.08;7.33
70437;BME280;57877;39.750;-104.894;2023-04-02T05:12:42;82932.95;;;13.20;7.47
70437;BME280;57877;39.750;-104.894;2023-04-02T05:15:13;82933.77;;;12.86;7.54
70437;BME280;57877;39.750;-104.894;2023-04-02T05:17:33;82940.11;;;12.59;7.53
70437;BME280;57877;39.750;-104.894;2023-04-02T05:20:02;82941.88;;;12.32;7.88
70437;BME280;57877;39.750;-104.894;2023-04-02T05:22:28;82935.48;;;12.24;7.83
70437;BME280;57877;39.750;-104.894;2023-04-02T05:24:56;82927.58;;;10.83;8.41
70437;BME280;57877;39.750;-104.894;2023-04-02T05:27:23;82935.31;;;11.90;8.16
70437;BME280;57877;39.750;-104.894;2023-04-02T05:29:44;82929.83;;;11.76;8.25
70437;BME280;57877;39.750;-104.894;2023-04-02T05:32:12;82936.50;;;11.70;8.31
70437;BME280;57877;39.750;-104.894;2023-04-02T05:34:32;82930.85;;;12.29;8.23
70437;BME280;57877;39.750;-104.894;2023-04-02T05:36:56;82925.11;;;12.07;8.24
70437;BME280;57877;39.750;-104.894;2023-04-02T05:39:23;82920.40;;;11.63;8.49
70437;BME280;57877;39.750;-104.894;2023-04-02T05:41:48;82932.21;;;11.72;8.53
70437;BME280;57877;39.750;-104.894;2023-04-02T05:44:20;82931.20;;;11.63;8.46
70437;BME280;57877;39.750;-104.894;2023-04-02T05:46:46;82934.63;;;11.70;8.67
70437;BME280;57877;39.750;-104.894;2023-04-02T05:49:12;82928.13;;;11.48;8.57
70437;BME280;57877;39.750;-104.894;2023-04-02T05:51:37;82918.49;;;11.47;8.76
70437;BME280;57877;39.750;-104.894;2023-04-02T05:53:59;82923.47;;;11.28;8.67
70437;BME280;57877;39.750;-104.894;2023-04-02T05:56:25;82924.59;;;11.73;8.06
70437;BME280;57877;39.750;-104.894;2023-04-02T05:58:51;82920.72;;;11.75;8.27
70437;BME280;57877;39.750;-104.894;2023-04-02T06:01:26;82917.14;;;11.65;8.32
70437;BME280;57877;39.750;-104.894;2023-04-02T06:03:45;82914.32;;;11.83;8.06
70437;BME280;57877;39.750;-104.894;2023-04-02T06:06:14;82908.34;;;11.69;8.20
70437;BME280;57877;39.750;-104.894;2023-04-02T06:08:37;82905.48;;;12.09;8.34
70437;BME280;57877;39.750;-104.894;2023-04-02T06:11:04;82904.27;;;11.81;8.26
70437;BME280;57877;39.750;-104.894;2023-04-02T06:13:26;82906.33;;;11.79;8.66
70437;BME280;57877;39.750;-104.894;2023-04-02T06:15:51;82898.13;;;11.91;8.74
70437;BME280;57877;39.750;-104.894;2023-04-02T06:18:19;82899.47;;;11.11;9.36
70437;BME280;57877;39.750;-104.894;2023-04-02T06:20:44;82912.65;;;11.00;9.43
70437;BME280;57877;39.750;-104.894;2023-04-02T06:23:12;82913.20;;;10.30;9.71
70437;BME280;57877;39.750;-104.894;2023-04-02T06:25:36;82910.57;;;10.11;9.94
70437;BME280;57877;39.750;-104.894;2023-04-02T06:28:03;82904.84;;;10.32;9.89
70437;BME280;57877;39.750;-104.894;2023-04-02T06:30:29;82906.36;;;10.46;9.76
70437;BME280;57877;39.750;-104.894;2023-04-02T06:32:51;82902.36;;;9.91;9.87
70437;BME280;57877;39.750;-104.894;2023-04-02T06:35:17;82898.63;;;10.14;9.97
70437;BME280;57877;39.750;-104.894;2023-04-02T06:37:44;82893.13;;;9.70;10.34
70437;BME280;57877;39.750;-104.894;2023-04-02T06:42:34;82897.47;;;9.34;10.71
70437;BME280;57877;39.750;-104.894;2023-04-02T06:44:56;82894.78;;;9.82;10.32
70437;BME280;57877;39.750;-104.894;2023-04-02T06:47:29;82890.74;;;9.97;10.20
70437;BME280;57877;39.750;-104.894;2023-04-02T06:49:51;82882.07;;;9.70;10.35
70437;BME280;57877;39.750;-104.894;2023-04-02T06:52:19;82879.90;;;9.76;10.18
70437;BME280;57877;39.750;-104.894;2023-04-02T06:54:39;82880.83;;;9.19;10.49
70437;BME280;57877;39.750;-104.894;2023-04-02T06:57:06;82877.65;;;9.64;10.21
70437;BME280;57877;39.750;-104.894;2023-04-02T06:59:31;82876.65;;;9.66;10.27
70437;BME280;57877;39.750;-104.894;2023-04-02T07:02:00;82870.61;;;9.71;10.34
70437;BME280;57877;39.750;-104.894;2023-04-02T07:04:24;82877.58;;;9.00;10.82
70437;BME280;57877;39.750;-104.894;2023-04-02T07:06:48;82874.54;;;9.12;10.53
70437;BME280;57877;39.750;-104.894;2023-04-02T07:09:14;82874.83;;;9.44;10.40
70437;BME280;57877;39.750;-104.894;2023-04-02T07:11:40;82876.13;;;9.68;10.30
70437;BME280;57877;39.750;-104.894;2023-04-02T07:14:05;82882.82;;;9.24;10.64
70437;BME280;57877;39.750;-104.894;2023-04-02T07:16:31;82887.40;;;9.70;10.61
70437;BME280;57877;39.750;-104.894;2023-04-02T07:18:56;82869.80;;;8.59;11.34
70437;BME280;57877;39.750;-104.894;2023-04-02T07:21:20;82871.46;;;8.47;11.38
70437;BME280;57877;39.750;-104.894;2023-04-02T07:23:46;82873.44;;;8.60;11.24
70437;BME280;57877;39.750;-104.894;2023-04-02T07:26:14;82868.93;;;8.89;11.07
70437;BME280;57877;39.750;-104.894;2023-04-02T07:28:38;82867.46;;;8.74;10.96
70437;BME280;57877;39.750;-104.894;2023-04-02T07:31:07;82873.38;;;8.73;11.14
70437;BME280;57877;39.750;-104.894;2023-04-02T07:33:30;82869.58;;;9.37;10.97
70437;BME280;57877;39.750;-104.894;2023-04-02T07:35:57;82867.41;;;8.81;10.92
70437;BME280;57877;39.750;-104.894;2023-04-02T07:38:21;82873.29;;;8.57;11.41
70437;BME280;57877;39.750;-104.894;2023-04-02T07:40:47;82875.65;;;8.68;11.30
70437;BME280;57877;39.750;-104.894;2023-04-02T07:43:12;82882.84;;;8.78;11.03
70437;BME280;57877;39.750;-104.894;2023-04-02T07:45:38;82865.63;;;9.35;10.92
70437;BME280;57877;39.750;-104.894;2023-04-02T07:48:04;82860.30;;;9.03;10.87
70437;BME280;57877;39.750;-104.894;2023-04-02T07:50:29;82878.60;;;8.61;11.29
70437;BME280;57877;39.750;-104.894;2023-04-02T07:52:55;82878.34;;;8.82;11.22
70437;BME280;57877;39.750;-104.894;2023-04-02T07:55:20;82869.05;;;9.20;10.97
70437;BME280;57877;39.750;-104.894;2023-04-02T07:57:49;82858.48;;;8.32;11.02
70437;BME280;57877;39.750;-104.894;2023-04-02T08:00:13;82867.14;;;8.86;11.18
70437;BME280;57877;39.750;-104.894;2023-04-02T08:02:35;82877.87;;;8.90;10.96
70437;BME280;57877;39.750;-104.894;2023-04-02T08:05:00;82875.73;;;8.80;10.84
70437;BME280;57877;39.750;-104.894;2023-04-02T08:07:27;82859.27;;;8.97;10.99
70437;BME280;57877;39.750;-104.894;2023-04-02T08:09:50;82862.59;;;9.33;10.72
70437;BME280;57877;39.750;-104.894;2023-04-02T08:12:15;82862.45;;;9.20;10.92
70437;BME280;57877;39.750;-104.894;2023-04-02T08:14:40;82859.01;;;8.91;10.92
70437;BME280;57877;39.750;-104.894;2023-04-02T08:17:05;82864.26;;;9.05;10.95
70437;BME280;57877;39.750;-104.894;2023-04-02T08:19:30;82862.00;;;8.92;11.00
70437;BME280;57877;39.750;-104.894;2023-04-02T08:21:55;82866.15;;;8.54;11.16
70437;BME280;57877;39.750;-104.894;2023-04-02T08:24:21;82859.96;;;8.71;11.11
70437;BME280;57877;39.750;-104.894;2023-04-02T08:26:46;82857.82;;;9.15;11.00
70437;BME280;57877;39.750;-104.894;2023-04-02T08:29:11;82856.16;;;9.01;11.04
70437;BME280;57877;39.750;-104.894;2023-04-02T08:31:36;82859.77;;;8.82;11.26
70437;BME280;57877;39.750;-104.894;2023-04-02T08:34:00;82848.02;;;8.26;11.40
70437;BME280;57877;39.750;-104.894;2023-04-02T08:36:29;82843.44;;;8.34;11.47
70437;BME280;57877;39.750;-104.894;2023-04-02T08:38:50;82843.50;;;8.25;11.36
70437;BME280;57877;39.750;-104.894;2023-04-02T08:41:20;82844.90;;;8.36;11.41
70437;BME280;57877;39.750;-104.894;2023-04-02T08:43:54;82844.27;;;8.45;11.47
70437;BME280;57877;39.750;-104.894;2023-04-02T08:46:10;82849.34;;;8.44;11.48
70437;BME280;57877;39.750;-104.894;2023-04-02T08:48:32;82837.03;;;8.41;11.54
70437;BME280;57877;39.750;-104.894;2023-04-02T08:50:57;82840.80;;;8.18;11.61
70437;BME280;57877;39.750;-104.894;2023-04-02T08:53:23;82846.65;;;8.18;11.57
70437;BME280;57877;39.750;-104.894;2023-04-02T08:55:54;82834.42;;;8.55;11.71
70437;BME280;57877;39.750;-104.894;2023-04-02T08:58:21;82844.14;;;7.91;11.94
70437;BME280;57877;39.750;-104.894;2023-04-02T09:00:39;82839.47;;;8.24;11.79
70437;BME280;57877;39.750;-104.894;2023-04-02T09:03:05;82832.00;;;8.21;12.33
70437;BME280;57877;39.750;-104.894;2023-04-02T09:05:28;82837.82;;;7.64;12.19
70437;BME280;57877;39.750;-104.894;2023-04-02T09:07:52;82834.56;;;7.64;12.19
70437;BME280;57877;39.750;-104.894;2023-04-02T09:10:17;82834.31;;;7.86;12.14
70437;BME280;57877;39.750;-104.894;2023-04-02T09:12:43;82834.31;;;7.64;12.19
70437;BME280;57877;39.750;-104.894;2023-04-02T09:15:15;82838.59;;;7.27;12.54
70437;BME280;57877;39.750;-104.894;2023-04-02T09:17:31;82837.48;;;8.04;12.46
70437;BME280;57877;39.750;-104.894;2023-04-02T09:20:02;82840.70;;;7.34;12.56
70437;BME280;57877;39.750;-104.894;2023-04-02T09:22:23;82832.92;;;7.54;12.04
70437;BME280;57877;39.750;-104.894;2023-04-02T09:24:51;82827.40;;;7.47;12.60
70437;BME280;57877;39.750;-104.894;2023-04-02T09:27:18;82822.57;;;7.64;12.48
70437;BME280;57877;39.750;-104.894;2023-04-02T09:29:42;82815.02;;;7.78;12.70
70437;BME280;57877;39.750;-104.894;2023-04-02T09:32:13;82820.42;;;7.51;12.24
70437;BME280;57877;39.750;-104.894;2023-04-02T09:34:29;82826.98;;;7.57;12.35
70437;BME280;57877;39.750;-104.894;2023-04-02T09:36:52;82822.93;;;7.76;12.04
70437;BME280;57877;39.750;-104.894;2023-04-02T09:39:18;82818.31;;;7.93;11.93
70437;BME280;57877;39.750;-104.894;2023-04-02T09:41:44;82820.26;;;7.92;11.82
70437;BME280;57877;39.750;-104.894;2023-04-02T09:44:18;82816.36;;;8.12;11.59
70437;BME280;57877;39.750;-104.894;2023-04-02T09:46:34;82812.00;;;7.89;11.77
70437;BME280;57877;39.750;-104.894;2023-04-02T09:49:00;82813.98;;;8.04;11.74
70437;BME280;57877;39.750;-104.894;2023-04-02T09:51:25;82819.17;;;8.16;11.57
70437;BME280;57877;39.750;-104.894;2023-04-02T09:53:50;82812.73;;;8.04;11.57
70437;BME280;57877;39.750;-104.894;2023-04-02T09:56:17;82812.59;;;7.63;11.71
70437;BME280;57877;39.750;-104.894;2023-04-02T09:58:41;82813.01;;;7.55;11.88
70437;BME280;57877;39.750;-104.894;2023-04-02T10:01:11;82804.60;;;7.61;12.02
70437;BME280;57877;39.750;-104.894;2023-04-02T10:03:32;82800.74;;;7.66;12.03
70437;BME280;57877;39.750;-104.894;2023-04-02T10:06:05;82802.01;;;8.02;12.03
70437;BME280;57877;39.750;-104.894;2023-04-02T10:08:26;82795.14;;;7.58;12.26
70437;BME280;57877;39.750;-104.894;2023-04-02T10:10:49;82794.15;;;7.50;12.39
70437;BME280;57877;39.750;-104.894;2023-04-02T10:13:19;82796.10;;;6.89;13.04
70437;BME280;57877;39.750;-104.894;2023-04-02T10:15:43;82793.87;;;7.00;13.05
70437;BME280;57877;39.750;-104.894;2023-04-02T10:18:10;82794.83;;;7.19;12.89
70437;BME280;57877;39.750;-104.894;2023-04-02T10:20:32;82789.37;;;7.07;12.72
70437;BME280;57877;39.750;-104.894;2023-04-02T10:22:56;82795.30;;;7.48;12.71
70437;BME280;57877;39.750;-104.894;2023-04-02T10:25:25;82791.41;;;7.38;12.73
70437;BME280;57877;39.750;-104.894;2023-04-02T10:27:50;82794.64;;;7.24;12.78
70437;BME280;57877;39.750;-104.894;2023-04-02T10:30:18;82787.07;;;7.28;12.83
70437;BME280;57877;39.750;-104.894;2023-04-02T10:32:41;82781.03;;;6.69;12.97
70437;BME280;57877;39.750;-104.894;2023-04-02T10:35:04;82780.73;;;6.58;13.63
70437;BME280;57877;39.750;-104.894;2023-04-02T10:39:58;82789.82;;;6.29;13.47
70437;BME280;57877;39.750;-104.894;2023-04-02T10:42:25;82781.19;;;6.57;13.79
70437;BME280;57877;39.750;-104.894;2023-04-02T10:44:50;82785.92;;;6.02;13.66
70437;BME280;57877;39.750;-104.894;2023-04-02T10:49:41;82787.17;;;5.69;14.51
70437;BME280;57877;39.750;-104.894;2023-04-02T10:52:06;82799.79;;;6.23;14.00
70437;BME280;57877;39.750;-104.894;2023-04-02T10:54:35;82785.48;;;6.27;14.02
70437;BME280;57877;39.750;-104.894;2023-04-02T10:57:02;82783.37;;;5.82;14.22
70437;BME280;57877;39.750;-104.894;2023-04-02T10:59:23;82790.80;;;6.07;13.98
70437;BME280;57877;39.750;-104.894;2023-04-02T11:01:46;82789.59;;;5.78;13.94
70437;BME280;57877;39.750;-104.894;2023-04-02T11:04:16;82786.21;;;5.78;14.16
70437;BME280;57877;39.750;-104.894;2023-04-02T11:06:40;82796.16;;;6.19;13.90
70437;BME280;57877;39.750;-104.894;2023-04-02T11:09:04;82784.47;;;6.00;13.81
70437;BME280;57877;39.750;-104.894;2023-04-02T11:11:33;82767.87;;;5.39;14.83
70437;BME280;57877;39.750;-104.894;2023-04-02T11:13:57;82768.05;;;5.00;14.85
70437;BME280;57877;39.750;-104.894;2023-04-02T11:16:20;82778.29;;;5.15;14.76
70437;BME280;57877;39.750;-104.894;2023-04-02T11:28:30;82802.56;;;4.91;15.11
70437;BME280;57877;39.750;-104.894;2023-04-02T11:30:56;82798.94;;;5.29;15.42
70437;BME280;57877;39.750;-104.894;2023-04-02T11:35:47;82796.87;;;4.78;15.50
70437;BME280;57877;39.750;-104.894;2023-04-02T11:40:45;82808.20;;;4.93;15.55
70437;BME280;57877;39.750;-104.894;2023-04-02T11:50:28;82800.73;;;4.30;16.35
70437;BME280;57877;39.750;-104.894;2023-04-02T11:52:52;82803.33;;;4.82;16.00
70437;BME280;57877;39.750;-104.894;2023-04-02T11:55:22;82803.12;;;4.87;16.08
70437;BME280;57877;39.750;-104.894;2023-04-02T11:57:50;82805.52;;;4.87;15.71
70437;BME280;57877;39.750;-104.894;2023-04-02T12:00:17;82807.71;;;4.68;15.92
70437;BME280;57877;39.750;-104.894;2023-04-02T12:02:38;82807.69;;;4.95;15.59
70437;BME280;57877;39.750;-104.894;2023-04-02T12:05:09;82819.65;;;4.80;16.12
70437;BME280;57877;39.750;-104.894;2023-04-02T12:07:39;82814.44;;;4.83;15.99
70437;BME280;57877;39.750;-104.894;2023-04-02T12:09:54;82821.51;;;4.70;16.04
70437;BME280;57877;39.750;-104.894;2023-04-02T12:12:24;82812.71;;;4.95;15.67
70437;BME280;57877;39.750;-104.894;2023-04-02T12:14:45;82811.43;;;5.06;15.20
70437;BME280;57877;39.750;-104.894;2023-04-02T12:17:17;82809.08;;;5.26;15.39
70437;BME280;57877;39.750;-104.894;2023-04-02T12:19:35;82808.41;;;5.14;15.81
70437;BME280;57877;39.750;-104.894;2023-04-02T12:22:01;82811.47;;;4.90;15.93
70437;BME280;57877;39.750;-104.894;2023-04-02T12:24:28;82819.81;;;4.66;16.09
70437;BME280;57877;39.750;-104.894;2023-04-02T12:29:23;82825.40;;;5.03;15.84
70437;BME280;57877;39.750;-104.894;2023-04-02T12:31:46;82828.93;;;4.88;15.96
70437;BME280;57877;39.750;-104.894;2023-04-02T12:34:14;82833.62;;;5.03;15.71
70437;BME280;57877;39.750;-104.894;2023-04-02T12:36:37;82830.04;;;5.13;15.56
70437;BME280;57877;39.750;-104.894;2023-04-02T12:39:12;82828.91;;;5.13;15.48
70437;BME280;57877;39.750;-104.894;2023-04-02T12:41:30;82825.24;;;5.49;14.94
70437;BME280;57877;39.750;-104.894;2023-04-02T12:43:59;82827.22;;;5.32;14.91
70437;BME280;57877;39.750;-104.894;2023-04-02T12:46:21;82831.27;;;5.22;15.24
70437;BME280;57877;39.750;-104.894;2023-04-02T12:48:47;82832.53;;;5.28;14.78
70437;BME280;57877;39.750;-104.894;2023-04-02T12:51:13;82832.58;;;5.34;14.85
70437;BME280;57877;39.750;-104.894;2023-04-02T12:53:40;82828.94;;;5.21;14.63
70437;BME280;57877;39.750;-104.894;2023-04-02T12:56:06;82832.20;;;5.58;14.93
70437;BME280;57877;39.750;-104.894;2023-04-02T12:58:35;82845.84;;;5.42;14.45
70437;BME280;57877;39.750;-104.894;2023-04-02T13:03:24;82855.04;;;4.49;15.15
70437;BME280;57877;39.750;-104.894;2023-04-02T13:05:53;82855.71;;;5.37;14.96
70437;BME280;57877;39.750;-104.894;2023-04-02T13:08:21;82858.31;;;5.56;14.93
70437;BME280;57877;39.750;-104.894;2023-04-02T13:10:42;82861.39;;;5.31;15.07
70437;BME280;57877;39.750;-104.894;2023-04-02T13:13:15;82861.67;;;5.71;14.81
70437;BME280;57877;39.750;-104.894;2023-04-02T13:15:34;82870.71;;;5.42;15.13